Pagina principale
METAR-TAF:

METAR-TAF

Aeroporti :

Ancona, Italia

latitudine: 43-37N, longitudine: 013-22E, altezza: 12 m

Osservazione

Il bollettino è stato emesso 1 ora e 9 minuti fa, alle 14:50 UTC
Vento 4 kt da nord/nord-est
Temperature 12°C
Umidità 71%
Pressione 1011 hPa
Visibilità 10 km o più
nessuna nube inferiore a 1500 m e nessun cumulonembo

METAR: LIPY 191450Z 03004KT CAVOK 12/07 Q1011

Ora: 16:59 (15:59 UTC)

Previsione

Il bollettino è stato emesso 4 ore e 59 minuti fa, alle 11:00 UTC
Previsione valida dal 19 alle 12 UTC al 20 alle 12 UTC
Vento 10 kt da nord/nord-ovest
Visibilità 10 km o più
Nubi sparse ad un'altezza di 3000 ft
Evoluzione graduale
dal 19 alle 17 UTC al 19 alle 19 UTC
Vento 5 kt da direzioni variabili
Evoluzione graduale
dal 20 alle 08 UTC al 20 alle 10 UTC
Vento 10 kt da sud/sud-ovest

TAF: LIPY 191100Z 1912/2012 34010KT 9999 SCT030 BECMG 1917/1919 VRB05KT BECMG 2008/2010 21010KT

Osservazioni e previsioni meteorologiche di più di 4000 aeroporti (messaggi METAR e TAF).

Le stazioni disponibili sono rappresentate dai dischi gialli e rossi sulla carta.

Puntare il mouse per vedere il nome della stazione.

Clicca sopra per visualizzare le osservazioni e previsioni meteorologiche.

Per cambiare la mappa : fare clic sui pulsanti verdi con una croce nera per ingrandire, il pulsante verde con un trattino per diminuire, o sulla freccia verde per le mappe adiacenti.


METAR-TAF: